Plato, MN

3:27 PM CST on December 03, 2016 (GMT -0600)
Glencoe Municipal

Weather History for KGYL - May, 2013

Change the Weather History Date:

Tuesday, May 14, 2013

  Actual Average (KHCD) Record (KHCD)
Temperature  
Mean Temperature 74 °F -  
Max Temperature 97 °F 69 °F 99 °F (2013)
Min Temperature 50 °F 45 °F 32 °F (1973)
Cooling Degree Days 8    
Growing Degree Days 24 (Base 50)    
Moisture  
Dew Point 35 °F    
Average Humidity 29    
Maximum Humidity 63    
Minimum Humidity 5    
Precipitation  
Precipitation 0.00 in - - ()
Sea Level Pressure  
Sea Level Pressure 29.61 in    
Wind  
Wind Speed 10 mph (West)    
Max Wind Speed 32 mph    
Max Gust Speed 39 mph    
Visibility 10 miles    
Events Rain    
Averages and records for this station are not official NWS values.
T = Trace of Precipitation, MM = Missing Value Source: NWS Daily Summary

Daily Weather History Graph

Daily Weather History Graph

Search for Another Location

Airport or City:

Trip Planner

Search our weather history database for the weather conditions in past years. The results will help you decide how hot, cold, wet, or windy it might be!

Date:

Astronomy

May. 14, 2013 Rise Set
Actual Time 5:48 AM CDT 8:37 PM CDT
Civil Twilight 5:14 AM CDT 9:11 PM CDT
Nautical Twilight 4:32 AM CDT 9:54 PM CDT
Astronomical Twilight 3:42 AM CDT 10:44 PM CDT
Moon 9:29 AM CDT (5/14) No Moon Set
Length of Visible Light 15h 56m
Length of Day
14h 48m
Waxing Crescent, 19% of the Moon is Illuminated
May 14
Waxing Crescent
May 17
First Quarter
May 24
Full
May 31
Last Quarter
Jun 8
New

Hourly Weather History & Observations

Time (CDT) Temp. Dew Point Humidity Pressure Visibility Wind Dir Wind Speed Gust Speed Precip Events Conditions
12:14 AM 68.9 °F 42.4 °F 38% 29.65 in 10.0 mi WSW 6.9 mph - N/A   Clear
12:35 AM 68.4 °F 41.0 °F 37% 29.66 in 10.0 mi West 6.9 mph - N/A   Clear
12:54 AM 67.5 °F 40.1 °F 37% 29.67 in 10.0 mi West 9.2 mph - N/A   Clear
1:15 AM 67.8 °F 39.4 °F 35% 29.67 in 10.0 mi West 6.9 mph - N/A   Clear
1:35 AM 66.2 °F 39.6 °F 38% 29.67 in 10.0 mi West 6.9 mph - N/A   Clear
1:54 AM 64.0 °F 39.4 °F 40% 29.67 in 10.0 mi West 6.9 mph - N/A   Clear
2:15 AM 59.2 °F 40.1 °F 49% 29.67 in 10.0 mi WSW 5.8 mph - N/A   Clear
2:34 AM 60.1 °F 39.6 °F 47% 29.68 in 10.0 mi WSW 4.6 mph - N/A   Clear
2:55 AM 59.7 °F 39.7 °F 48% 29.68 in 10.0 mi West 4.6 mph - N/A   Clear
3:15 AM 59.9 °F 39.4 °F 47% 29.68 in 10.0 mi West 4.6 mph - N/A   Clear
3:34 AM 59.5 °F 39.4 °F 47% 29.67 in 10.0 mi Calm Calm - N/A   Clear
3:55 AM 53.6 °F 38.7 °F 57% 29.68 in 10.0 mi WSW 3.5 mph - N/A   Clear
4:14 AM 54.5 °F 39.6 °F 57% 29.67 in 10.0 mi Calm Calm - N/A   Clear
4:35 AM 52.7 °F 38.7 °F 59% 29.67 in 10.0 mi Calm Calm - N/A   Clear
4:54 AM 54.0 °F 38.8 °F 57% 29.66 in 10.0 mi Calm Calm - N/A   Clear
5:15 AM 53.1 °F 39.2 °F 59% 29.66 in 10.0 mi Calm Calm - N/A   Clear
5:34 AM 50.5 °F 37.8 °F 62% 29.67 in 10.0 mi Calm Calm - N/A   Clear
5:54 AM 53.2 °F 39.2 °F 59% 29.67 in 10.0 mi South 6.9 mph - N/A   Clear
6:15 AM 54.9 °F 39.6 °F 56% 29.66 in 10.0 mi SSE 4.6 mph - N/A   Clear
6:34 AM 52.5 °F 40.1 °F 63% 29.65 in 10.0 mi SE 4.6 mph - N/A   Clear
6:55 AM 54.5 °F 41.9 °F 62% 29.66 in 10.0 mi Calm Calm - N/A   Clear
7:15 AM 59.2 °F 41.9 °F 53% 29.66 in 10.0 mi South 4.6 mph - N/A   Clear
7:35 AM 60.8 °F 43.5 °F 53% 29.67 in 10.0 mi Calm Calm - N/A   Clear
7:55 AM 64.2 °F 43.5 °F 47% 29.66 in 10.0 mi South 4.6 mph - N/A   Clear
8:15 AM 68.4 °F 45.0 °F 43% 29.65 in 10.0 mi South 4.6 mph - N/A   Clear
8:35 AM 71.8 °F 43.3 °F 36% 29.64 in 10.0 mi South 5.8 mph - N/A   Clear
8:54 AM 75.6 °F 41.2 °F 29% 29.63 in 10.0 mi South 11.5 mph - N/A   Clear
9:15 AM 75.0 °F 40.6 °F 29% 29.63 in 10.0 mi South 9.2 mph - N/A   Clear
9:34 AM 75.2 °F 41.0 °F 29% 29.64 in 10.0 mi SSW 4.6 mph - N/A   Clear
9:55 AM 74.5 °F 44.6 °F 34% 29.66 in 10.0 mi North 3.5 mph - N/A   Scattered Clouds
10:14 AM 72.9 °F 44.6 °F 36% 29.66 in 10.0 mi North 3.5 mph - N/A   Mostly Cloudy
10:34 AM 74.7 °F 47.5 °F 38% 29.62 in 10.0 mi East 9.2 mph - N/A Rain Light Rain
10:55 AM 79.0 °F 40.3 °F 25% 29.64 in 10.0 mi ESE 8.1 mph - N/A   Clear
11:14 AM 77.2 °F 41.5 °F 28% 29.60 in 10.0 mi East 13.8 mph 19.6 mph N/A   Scattered Clouds
11:35 AM 78.3 °F 41.9 °F 27% 29.58 in 10.0 mi East 15.0 mph 19.6 mph N/A   Clear
11:54 AM 79.7 °F 42.8 °F 27% 29.57 in 10.0 mi ESE 17.3 mph - N/A   Clear
12:15 PM 84.0 °F 42.8 °F 23% 29.53 in 10.0 mi ESE 18.4 mph - N/A   Clear
12:35 PM 87.4 °F 39.2 °F 18% 29.51 in 10.0 mi SE 21.9 mph 31.1 mph N/A   Clear
12:54 PM 89.2 °F 39.0 °F 17% 29.50 in 10.0 mi SE 20.7 mph 32.2 mph N/A   Clear
1:12 PM 89.6 °F 39.7 °F 17% 29.50 in 10.0 mi SSE 18.4 mph 26.5 mph N/A   Clear
1:35 PM 94.5 °F 38.1 °F 14% 29.49 in 10.0 mi SSE 16.1 mph 21.9 mph N/A   Clear
1:55 PM 95.4 °F 38.7 °F 14% 29.47 in 10.0 mi SSE 12.7 mph 24.2 mph N/A   Clear
2:13 PM 96.6 °F 35.1 °F 12% 29.48 in 10.0 mi WSW 13.8 mph 23.0 mph N/A   Clear
2:28 PM 97.5 °F 34.0 °F 11% 29.47 in 10.0 mi West 16.1 mph 24.2 mph N/A   Clear
2:55 PM 97.9 °F 32.5 °F 10% 29.48 in 10.0 mi West 26.5 mph 29.9 mph N/A   Clear
3:12 PM 96.8 °F 32.9 °F 11% 29.48 in 10.0 mi WNW 21.9 mph 29.9 mph N/A   Clear
3:25 PM 97.2 °F 32.9 °F 10% 29.48 in 10.0 mi West 25.3 mph 32.2 mph N/A   Clear
3:55 PM 96.4 °F 31.6 °F 10% 29.49 in 10.0 mi WNW 25.3 mph 34.5 mph N/A   Clear
4:15 PM 96.4 °F 26.6 °F 8% 29.50 in 10.0 mi WNW 31.1 mph 39.1 mph N/A   Clear
4:34 PM 96.1 °F 28.9 °F 9% 29.51 in 10.0 mi NW 24.2 mph 39.1 mph N/A   Clear
4:55 PM 96.1 °F 23.7 °F 7% 29.52 in 10.0 mi NW 26.5 mph 32.2 mph N/A   Clear
5:15 PM 95.2 °F 22.8 °F 7% 29.53 in 10.0 mi WNW 27.6 mph 38.0 mph N/A   Clear
5:34 PM 94.6 °F 20.7 °F 7% 29.53 in 10.0 mi WNW 32.2 mph 39.1 mph N/A   Clear
5:55 PM 93.2 °F 20.8 °F 7% 29.54 in 10.0 mi WNW 26.5 mph 35.7 mph N/A   Clear
6:15 PM 93.0 °F 23.7 °F 8% 29.54 in 10.0 mi WNW 28.8 mph 34.5 mph N/A   Clear
6:34 PM 91.4 °F 23.2 °F 8% 29.55 in 10.0 mi West 28.8 mph 39.1 mph N/A   Clear
6:55 PM 88.9 °F 7.7 °F 5% 29.56 in 10.0 mi WNW 25.3 mph 34.5 mph N/A   Clear
7:14 PM 87.3 °F 13.6 °F 6% 29.57 in 10.0 mi West 23.0 mph 34.5 mph N/A   Clear
7:35 PM 85.3 °F 10.0 °F 6% 29.58 in 10.0 mi West 24.2 mph 31.1 mph N/A   Clear
7:55 PM 83.8 °F 10.9 °F 6% 29.59 in 10.0 mi West 24.2 mph 29.9 mph N/A   Clear
8:14 PM 82.6 °F 12.9 °F 7% 29.60 in 10.0 mi WNW 19.6 mph 28.8 mph N/A   Clear
8:35 PM 80.1 °F 16.7 °F 9% 29.61 in 10.0 mi WNW 15.0 mph 21.9 mph N/A   Clear
8:55 PM 79.0 °F 18.5 °F 10% 29.61 in 10.0 mi WNW 16.1 mph 27.6 mph N/A   Clear
9:15 PM 78.1 °F 21.9 °F 12% 29.63 in 10.0 mi WNW 16.1 mph 21.9 mph N/A   Clear
9:35 PM 76.3 °F 25.0 °F 15% 29.64 in 10.0 mi WNW 15.0 mph - N/A   Clear
9:54 PM 74.3 °F 28.4 °F 18% 29.65 in 10.0 mi WNW 11.5 mph - N/A   Clear
10:15 PM 72.9 °F 31.1 °F 21% 29.67 in 10.0 mi WNW 17.3 mph 23.0 mph N/A   Clear
10:34 PM 73.2 °F 34.3 °F 24% 29.68 in 10.0 mi WNW 19.6 mph 23.0 mph N/A   Clear
10:55 PM 71.8 °F 36.7 °F 28% 29.69 in 10.0 mi WNW 15.0 mph - N/A   Clear
11:15 PM 70.5 °F 38.3 °F 31% 29.70 in 10.0 mi WNW 18.4 mph 26.5 mph N/A   Clear
11:34 PM 68.9 °F 39.4 °F 34% 29.71 in 10.0 mi WNW 17.3 mph 23.0 mph N/A   Clear
11:55 PM 68.2 °F 39.7 °F 35% 29.72 in 10.0 mi WNW 13.8 mph 21.9 mph N/A   Clear